createdAt,value
2022-08-01T00:00:25.703Z,100233.50
2022-08-01T00:03:27.176Z,100243.00
2022-08-01T00:06:28.667Z,100245.00
2022-08-01T00:09:30.269Z,100240.34
2022-08-01T00:12:31.819Z,100231.28
2022-08-01T00:15:33.353Z,100234.56
2022-08-01T00:18:36.596Z,100237.03
2022-08-01T00:21:38.090Z,100237.13
2022-08-01T00:24:53.153Z,100235.44
2022-08-01T00:27:55.225Z,100235.97
2022-08-01T00:30:56.675Z,100233.44
2022-08-01T00:33:58.116Z,100234.50
2022-08-01T00:36:59.600Z,100244.38
2022-08-01T00:40:01.025Z,100245.25
2022-08-01T00:43:02.555Z,100236.22
2022-08-01T00:46:04.023Z,100251.28
2022-08-01T00:49:05.804Z,100246.81
2022-08-01T00:52:11.895Z,100239.50
2022-08-01T00:55:15.350Z,100240.50
2022-08-01T00:58:17.803Z,100246.44
2022-08-01T01:01:21.636Z,100244.63
2022-08-01T01:04:24.042Z,100247.63
2022-08-01T01:07:49.619Z,100242.38
2022-08-01T01:11:05.461Z,100245.56
2022-08-01T01:14:19.936Z,100241.06
2022-08-01T01:17:49.795Z,100247.34
2022-08-01T01:21:04.484Z,100247.66
2022-08-01T01:24:34.528Z,100244.56
2022-08-01T01:28:17.958Z,100245.22
2022-08-01T01:31:25.092Z,100253.44
2022-08-01T01:34:28.763Z,100260.03
2022-08-01T01:37:34.007Z,100266.34
2022-08-01T01:40:36.988Z,100262.34
2022-08-01T01:43:40.317Z,100258.72
2022-08-01T01:46:43.654Z,100264.31
2022-08-01T01:49:47.661Z,100271.22
2022-08-01T01:52:50.893Z,100273.94
2022-08-01T01:55:56.697Z,100269.13
2022-08-01T01:59:01.476Z,100269.66
2022-08-01T02:02:06.665Z,100266.41
2022-08-01T02:05:11.209Z,100264.56
2022-08-01T02:08:16.999Z,100265.09
2022-08-01T02:11:20.545Z,100268.84
2022-08-01T02:14:24.424Z,100267.88
2022-08-01T02:17:27.606Z,100257.81
2022-08-01T02:20:31.561Z,100266.31
2022-08-01T02:23:36.807Z,100265.94
2022-08-01T02:26:42.240Z,100276.47
2022-08-01T02:29:47.982Z,100280.63
2022-08-01T02:32:55.175Z,100276.63
2022-08-01T02:36:32.312Z,100283.31
2022-08-01T02:39:23.607Z,100282.13
2022-08-01T02:42:28.537Z,100287.59
2022-08-01T02:45:30.980Z,100282.53
2022-08-01T02:48:35.837Z,100287.06
2022-08-01T02:51:39.831Z,100287.72
2022-08-01T02:54:44.785Z,100290.13
2022-08-01T02:57:52.312Z,100278.44
2022-08-01T03:00:59.556Z,100280.75
2022-08-01T03:04:01.231Z,100277.06
2022-08-01T03:07:05.728Z,100281.34
2022-08-01T03:10:08.512Z,100277.94
2022-08-01T03:13:11.888Z,100281.66
2022-08-01T03:16:14.434Z,100281.16
2022-08-01T03:19:19.153Z,100273.53
2022-08-01T03:22:23.947Z,100282.19
2022-08-01T03:25:27.307Z,100283.09
2022-08-01T03:28:31.666Z,100293.66
2022-08-01T03:31:36.053Z,100288.75
2022-08-01T03:34:37.518Z,100287.72
2022-08-01T03:38:06.328Z,100289.06
2022-08-01T03:41:18.752Z,100288.81
2022-08-01T03:44:25.828Z,100288.75
2022-08-01T03:47:31.715Z,100291.28
2022-08-01T03:50:34.818Z,100294.72
2022-08-01T03:53:40.017Z,100284.44
2022-08-01T03:56:45.733Z,100290.03
2022-08-01T03:59:48.059Z,100287.63
2022-08-01T04:02:50.670Z,100284.03
2022-08-01T04:05:52.245Z,100287.34
2022-08-01T04:08:57.535Z,100288.09
2022-08-01T04:12:02.915Z,100285.22
2022-08-01T04:15:13.608Z,100289.91
2022-08-01T04:18:15.122Z,100288.56
2022-08-01T04:21:19.859Z,100295.03
2022-08-01T04:24:24.709Z,100292.97
2022-08-01T04:27:48.707Z,100291.09
2022-08-01T04:31:01.386Z,100292.13
2022-08-01T04:34:06.264Z,100305.53
2022-08-01T04:37:12.311Z,100302.19
2022-08-01T04:40:16.985Z,100307.22
2022-08-01T04:43:19.916Z,100307.59
2022-08-01T04:46:22.663Z,100313.25
2022-08-01T04:49:25.350Z,100309.13
2022-08-01T04:52:34.304Z,100307.59
2022-08-01T04:55:36.558Z,100311.94
2022-08-01T04:58:38.234Z,100315.69
2022-08-01T05:01:42.702Z,100314.06
2022-08-01T05:04:45.403Z,100311.97
2022-08-01T05:07:46.835Z,100316.94
2022-08-01T05:10:48.395Z,100327.94
2022-08-01T05:13:49.985Z,100323.81
2022-08-01T05:16:52.405Z,100331.88
2022-08-01T05:19:54.084Z,100323.88
2022-08-01T05:22:55.696Z,100329.50
2022-08-01T05:25:59.211Z,100327.28
2022-08-01T05:29:01.553Z,100332.25
2022-08-01T05:32:04.157Z,100332.78
2022-08-01T05:35:06.584Z,100337.69
2022-08-01T05:38:08.030Z,100327.69
2022-08-01T05:41:15.600Z,100336.06
2022-08-01T05:44:17.212Z,100339.63
2022-08-01T05:47:19.113Z,100341.28
2022-08-01T05:50:20.571Z,100341.69
2022-08-01T05:53:22.129Z,100337.13
2022-08-01T05:56:24.129Z,100336.34
2022-08-01T05:59:25.693Z,100341.28
2022-08-01T06:02:28.825Z,100340.88
2022-08-01T06:05:30.391Z,100340.16
2022-08-01T06:08:31.994Z,100352.97
2022-08-01T06:11:33.483Z,100359.91
2022-08-01T06:14:35.053Z,100359.25
2022-08-01T06:17:36.529Z,100359.47
2022-08-01T06:20:38.163Z,100355.28
2022-08-01T06:23:39.741Z,100364.81
2022-08-01T06:26:41.157Z,100364.97
2022-08-01T06:29:51.116Z,100367.75
2022-08-01T06:32:59.677Z,100371.56
2022-08-01T06:36:01.157Z,100363.25
2022-08-01T06:39:02.721Z,100365.41
2022-08-01T06:42:04.466Z,100371.63
2022-08-01T06:45:10.952Z,100371.75
2022-08-01T06:48:12.403Z,100373.84
2022-08-01T06:51:17.651Z,100379.44
2022-08-01T06:54:19.184Z,100381.69
2022-08-01T06:57:20.584Z,100377.84
2022-08-01T07:00:25.290Z,100389.16
2022-08-01T07:03:53.925Z,100386.75
2022-08-01T07:06:49.642Z,100386.84
2022-08-01T07:09:51.182Z,100391.50
2022-08-01T07:12:54.825Z,100388.94
2022-08-01T07:15:56.309Z,100395.84
2022-08-01T07:18:57.804Z,100385.41
2022-08-01T07:21:59.214Z,100383.38
2022-08-01T07:25:00.686Z,100385.25
2022-08-01T07:28:02.125Z,100373.25
2022-08-01T07:31:03.729Z,100373.03
2022-08-01T07:34:05.283Z,100368.94
2022-08-01T07:37:07.171Z,100376.06
2022-08-01T07:40:09.328Z,100367.38
2022-08-01T07:43:10.832Z,100369.94
2022-08-01T07:46:12.305Z,100360.59
2022-08-01T07:49:14.284Z,100358.78
2022-08-01T07:52:16.028Z,100365.34
2022-08-01T07:55:17.763Z,100365.19
2022-08-01T07:58:19.475Z,100366.66
2022-08-01T08:01:21.284Z,100364.47
2022-08-01T08:04:22.878Z,100363.31
2022-08-01T08:07:24.662Z,100362.00
2022-08-01T08:10:26.290Z,100361.28
2022-08-01T08:13:27.841Z,100367.09
2022-08-01T08:16:29.412Z,100365.41
2022-08-01T08:19:38.450Z,100376.81
2022-08-01T08:22:40.547Z,100380.25
2022-08-01T08:25:42.009Z,100377.94
2022-08-01T08:28:43.475Z,100378.00
2022-08-01T08:31:52.021Z,100383.19
2022-08-01T08:34:54.256Z,100368.97
2022-08-01T08:37:56.029Z,100365.34
2022-08-01T08:41:00.594Z,100373.03
2022-08-01T08:44:03.370Z,100367.78
2022-08-01T08:47:09.299Z,100374.25
2022-08-01T08:50:11.149Z,100374.25
2022-08-01T08:53:18.546Z,100373.13
2022-08-01T08:56:21.974Z,100368.44
2022-08-01T08:59:26.687Z,100369.97
2022-08-01T09:02:28.149Z,100373.28
2022-08-01T09:05:38.828Z,100367.31
2022-08-01T09:08:41.199Z,100362.66
2022-08-01T09:11:42.762Z,100363.44
2022-08-01T09:14:47.282Z,100368.66
2022-08-01T09:17:48.819Z,100360.53
2022-08-01T09:20:50.258Z,100372.13
2022-08-01T09:23:55.031Z,100381.00
2022-08-01T09:26:57.385Z,100375.75
2022-08-01T09:30:11.614Z,100376.56
2022-08-01T09:33:18.190Z,100383.03
2022-08-01T09:36:29.160Z,100378.19
2022-08-01T09:39:38.610Z,100378.16
2022-08-01T09:42:40.057Z,100384.78
2022-08-01T09:45:43.894Z,100383.34
2022-08-01T09:49:02.309Z,100385.31
2022-08-01T09:52:16.551Z,100377.22
2022-08-01T09:55:22.544Z,100382.19
2022-08-01T09:58:24.111Z,100383.81
2022-08-01T10:01:26.317Z,100383.91
2022-08-01T10:04:28.467Z,100372.03
2022-08-01T10:07:43.226Z,100367.50
2022-08-01T10:11:08.889Z,100365.31
2022-08-01T10:14:10.454Z,100364.16
2022-08-01T10:17:18.554Z,100373.97
2022-08-01T10:20:30.230Z,100376.94
2022-08-01T10:23:40.544Z,100373.84
2022-08-01T10:26:47.266Z,100365.94
2022-08-01T10:30:05.188Z,100363.38
2022-08-01T10:33:15.373Z,100365.03
2022-08-01T10:36:34.280Z,100362.44
2022-08-01T10:39:42.492Z,100364.91
2022-08-01T10:42:45.532Z,100367.06
2022-08-01T10:45:48.386Z,100363.53
2022-08-01T10:48:49.899Z,100365.09
2022-08-01T10:51:54.857Z,100355.75
2022-08-01T10:55:07.648Z,100351.09
2022-08-01T10:58:09.256Z,100346.00
2022-08-01T11:01:20.357Z,100348.47
2022-08-01T11:04:30.668Z,100346.59
2022-08-01T11:07:42.627Z,100346.97
2022-08-01T11:10:44.291Z,100339.97
2022-08-01T11:14:13.717Z,100344.56
2022-08-01T11:17:37.588Z,100342.66
2022-08-01T11:21:59.232Z,100342.88
2022-08-01T11:24:45.000Z,100341.97
2022-08-01T11:27:46.501Z,100335.53
2022-08-01T11:31:16.981Z,100327.25
2022-08-01T11:34:18.677Z,100326.91
2022-08-01T11:37:30.470Z,100326.69
2022-08-01T11:40:32.592Z,100327.47
2022-08-01T11:43:34.585Z,100312.84
2022-08-01T11:47:00.279Z,100317.13
2022-08-01T11:50:02.368Z,100307.34
2022-08-01T11:53:07.004Z,100316.63
2022-08-01T11:56:08.677Z,100319.69
2022-08-01T11:59:15.217Z,100311.72
2022-08-01T12:02:18.832Z,100307.84
2022-08-01T12:05:34.719Z,100303.19
2022-08-01T12:08:37.480Z,100312.53
2022-08-01T12:11:39.851Z,100303.69
2022-08-01T12:14:41.356Z,100306.47
2022-08-01T12:18:06.974Z,100302.03
2022-08-01T12:21:08.507Z,100292.50
2022-08-01T12:24:09.997Z,100297.69
2022-08-01T12:27:13.334Z,100292.50
2022-08-01T12:30:23.431Z,100282.84
2022-08-01T12:33:25.691Z,100281.47
2022-08-01T12:36:31.020Z,100292.91
2022-08-01T12:39:34.096Z,100305.19
2022-08-01T12:42:38.533Z,100290.72
2022-08-01T12:45:54.309Z,100307.06
2022-08-01T12:48:58.783Z,100290.84
2022-08-01T12:52:01.095Z,100288.88
2022-08-01T12:55:04.418Z,100293.19
2022-08-01T12:58:16.066Z,100281.69
2022-08-01T13:01:27.003Z,100277.44
2022-08-01T13:04:28.593Z,100275.25
2022-08-01T13:07:56.549Z,100277.63
2022-08-01T13:11:10.676Z,100273.25
2022-08-01T13:14:28.270Z,100269.97
2022-08-01T13:17:36.189Z,100275.91
2022-08-01T13:20:37.854Z,100270.78
2022-08-01T13:24:02.927Z,100273.06
2022-08-01T13:27:05.016Z,100264.31
2022-08-01T13:30:15.662Z,100261.38
2022-08-01T13:33:17.166Z,100260.13
2022-08-01T13:36:19.077Z,100269.28
2022-08-01T13:39:46.763Z,100262.81
2022-08-01T13:42:48.133Z,100265.97
2022-08-01T13:45:49.600Z,100275.63
2022-08-01T13:48:52.008Z,100270.47
2022-08-01T13:51:53.583Z,100260.03
2022-08-01T13:54:55.154Z,100266.75
2022-08-01T13:57:56.763Z,100256.25
2022-08-01T14:01:01.194Z,100249.19
2022-08-01T14:04:04.048Z,100254.81
2022-08-01T14:07:09.634Z,100252.13
2022-08-01T14:10:18.421Z,100255.75
2022-08-01T14:13:23.796Z,100251.84
2022-08-01T14:16:25.744Z,100246.38
2022-08-01T14:19:37.448Z,100252.03
2022-08-01T14:22:41.543Z,100250.81
2022-08-01T14:26:00.448Z,100252.41
2022-08-01T14:29:04.892Z,100253.66
2022-08-01T14:32:07.171Z,100249.56
2022-08-01T14:35:09.286Z,100255.94
2022-08-01T14:38:10.780Z,100250.06
2022-08-01T14:41:12.861Z,100252.53
2022-08-01T14:44:14.464Z,100251.84
2022-08-01T14:47:16.432Z,100252.75
2022-08-01T14:50:25.021Z,100245.13
2022-08-01T14:53:26.519Z,100247.25
2022-08-01T14:56:27.976Z,100247.16
2022-08-01T14:59:29.411Z,100238.28
2022-08-01T15:02:30.860Z,100238.09
2022-08-01T15:05:33.845Z,100231.13
2022-08-01T15:08:35.838Z,100226.16
2022-08-01T15:11:37.830Z,100235.50
2022-08-01T15:14:54.445Z,100234.44
2022-08-01T15:17:56.010Z,100236.44
2022-08-01T15:20:58.308Z,100240.56
2022-08-01T15:23:59.905Z,100245.25
2022-08-01T15:27:01.372Z,100247.41
2022-08-01T15:30:04.580Z,100241.66
2022-08-01T15:33:06.381Z,100250.94
2022-08-01T15:36:08.091Z,100244.34
2022-08-01T15:39:14.578Z,100249.19
2022-08-01T15:42:20.194Z,100244.53
2022-08-01T15:48:48.869Z,100249.38
2022-08-01T15:51:51.377Z,100245.00
2022-08-01T15:54:53.016Z,100249.66
2022-08-01T15:57:54.759Z,100246.13
2022-08-01T16:00:56.346Z,100240.47
2022-08-01T16:03:58.666Z,100255.13
2022-08-01T16:07:00.529Z,100245.22
2022-08-01T16:10:02.131Z,100243.06
2022-08-01T16:13:06.840Z,100243.59
2022-08-01T16:16:09.159Z,100236.59
2022-08-01T16:19:10.832Z,100237.41
2022-08-01T16:22:20.976Z,100232.28
2022-08-01T16:25:22.516Z,100242.03
2022-08-01T16:28:24.630Z,100230.34
2022-08-01T16:31:38.023Z,100226.72
2022-08-01T16:34:48.619Z,100224.34
2022-08-01T16:37:50.309Z,100224.75
2022-08-01T16:40:52.464Z,100214.88
2022-08-01T16:43:54.807Z,100224.84
2022-08-01T16:46:56.433Z,100225.81
2022-08-01T16:49:58.037Z,100217.66
2022-08-01T16:53:00.083Z,100213.91
2022-08-01T16:56:01.719Z,100217.88
2022-08-01T16:59:03.319Z,100212.59
2022-08-01T17:02:04.971Z,100207.00
2022-08-01T17:05:12.638Z,100205.56
2022-08-01T17:08:14.306Z,100213.66
2022-08-01T17:11:15.839Z,100220.66
2022-08-01T17:14:18.691Z,100230.63
2022-08-01T17:17:21.001Z,100226.47
2022-08-01T17:20:23.791Z,100225.47
2022-08-01T17:23:25.351Z,100227.13
2022-08-01T17:26:26.910Z,100234.13
2022-08-01T17:29:28.470Z,100228.09
2022-08-01T17:32:45.521Z,100234.41
2022-08-01T17:35:47.037Z,100235.31
2022-08-01T17:38:48.629Z,100243.28
2022-08-01T17:41:50.173Z,100233.66
2022-08-01T17:44:52.178Z,100246.75
2022-08-01T17:47:56.941Z,100244.75
2022-08-01T17:50:58.669Z,100262.59
2022-08-01T17:54:00.290Z,100266.63
2022-08-01T17:57:01.893Z,100257.91
2022-08-01T18:00:05.463Z,100259.41
2022-08-01T18:03:08.312Z,100255.69
2022-08-01T18:06:13.528Z,100260.88
2022-08-01T18:09:15.420Z,100259.13
2022-08-01T18:12:17.731Z,100261.78
2022-08-01T18:15:24.553Z,100260.97
2022-08-01T18:18:33.139Z,100263.59
2022-08-01T18:21:42.707Z,100258.78
2022-08-01T18:24:44.971Z,100265.88
2022-08-01T18:28:23.518Z,100269.38
2022-08-01T18:31:09.784Z,100271.66
2022-08-01T18:34:11.444Z,100272.22
2022-08-01T18:37:13.475Z,100268.72
2022-08-01T18:40:22.354Z,100272.78
2022-08-01T18:43:24.526Z,100269.69
2022-08-01T18:46:26.064Z,100277.28
2022-08-01T18:49:29.139Z,100281.25
2022-08-01T18:52:32.049Z,100279.06
2022-08-01T18:55:33.680Z,100278.22
2022-08-01T18:58:35.210Z,100277.94
2022-08-01T19:01:36.852Z,100282.97
2022-08-01T19:04:38.421Z,100291.94
2022-08-01T19:08:05.093Z,100300.88
2022-08-01T19:11:01.293Z,100304.94
2022-08-01T19:14:03.448Z,100310.56
2022-08-01T19:17:05.251Z,100322.34
2022-08-01T19:20:07.598Z,100316.38
2022-08-01T19:23:28.205Z,100320.81
2022-08-01T19:26:33.408Z,100332.34
2022-08-01T19:29:37.520Z,100335.19
2022-08-01T19:32:41.777Z,100342.78
2022-08-01T19:35:43.700Z,100342.06
2022-08-01T19:38:45.645Z,100345.75
2022-08-01T19:41:49.463Z,100345.91
2022-08-01T19:44:55.215Z,100353.75
2022-08-01T19:47:57.928Z,100352.66
2022-08-01T19:51:02.188Z,100358.38
2022-08-01T19:54:04.757Z,100357.31
2022-08-01T19:57:07.925Z,100361.25
2022-08-01T20:00:23.372Z,100358.03
2022-08-01T20:03:32.504Z,100358.38
2022-08-01T20:06:35.296Z,100356.72
2022-08-01T20:09:40.121Z,100366.66
2022-08-01T20:12:41.953Z,100364.56
2022-08-01T20:15:45.221Z,100366.16
2022-08-01T20:18:46.849Z,100369.53
2022-08-01T20:22:02.984Z,100373.63
2022-08-01T20:25:06.509Z,100376.13
2022-08-01T20:28:10.899Z,100370.50
2022-08-01T20:31:13.680Z,100370.66
2022-08-01T20:34:19.942Z,100370.03
2022-08-01T20:38:04.125Z,100370.13
2022-08-01T20:40:45.590Z,100362.31
2022-08-01T20:43:48.291Z,100371.00
2022-08-01T20:46:50.792Z,100373.81
2022-08-01T20:49:52.541Z,100378.25
2022-08-01T20:52:54.039Z,100373.69
2022-08-01T20:56:27.941Z,100380.97
2022-08-01T20:59:54.788Z,100377.59
2022-08-01T21:03:02.960Z,100380.16
2022-08-01T21:06:11.314Z,100379.00
2022-08-01T21:09:19.472Z,100384.50
2022-08-01T21:12:26.693Z,100384.31
2022-08-01T21:15:39.636Z,100380.78
2022-08-01T21:19:22.182Z,100389.19
2022-08-01T21:22:45.383Z,100398.69
2022-08-01T21:25:47.801Z,100397.00
2022-08-01T21:28:54.706Z,100391.50
2022-08-01T21:32:27.008Z,100387.13
2022-08-01T21:35:32.911Z,100401.41
2022-08-01T21:38:36.270Z,100402.53
2022-08-01T21:41:55.983Z,100399.97
2022-08-01T21:45:03.097Z,100403.16
2022-08-01T21:48:05.974Z,100409.81
2022-08-01T21:51:22.780Z,100405.28
2022-08-01T21:54:39.597Z,100408.81
2022-08-01T21:58:05.427Z,100415.97
2022-08-01T22:01:16.849Z,100412.56
2022-08-01T22:04:24.989Z,100424.84
2022-08-01T22:07:27.715Z,100425.09
2022-08-01T22:10:30.673Z,100432.41
2022-08-01T22:13:36.521Z,100442.22
2022-08-01T22:16:40.645Z,100448.03
2022-08-01T22:19:46.305Z,100450.97
2022-08-01T22:22:52.283Z,100452.72
2022-08-01T22:25:57.554Z,100457.16
2022-08-01T22:29:02.157Z,100445.13
2022-08-01T22:32:03.919Z,100444.66
2022-08-01T22:35:09.616Z,100439.53
2022-08-01T22:38:11.105Z,100436.00
2022-08-01T22:41:18.492Z,100440.31
2022-08-01T22:44:30.017Z,100442.88
2022-08-01T22:47:46.700Z,100432.06
2022-08-01T22:50:58.874Z,100445.06
2022-08-01T22:54:05.432Z,100438.59
2022-08-01T22:57:24.473Z,100434.19
2022-08-01T23:00:30.438Z,100440.16
2022-08-01T23:03:38.135Z,100443.19
2022-08-01T23:06:42.824Z,100447.66
2022-08-01T23:09:54.909Z,100441.19
2022-08-01T23:12:56.707Z,100446.59
2022-08-01T23:15:59.981Z,100437.16
2022-08-01T23:19:02.415Z,100445.84
2022-08-01T23:22:04.842Z,100452.59
2022-08-01T23:25:09.138Z,100449.75
2022-08-01T23:28:12.927Z,100440.16
2022-08-01T23:31:15.099Z,100437.91
2022-08-01T23:34:19.817Z,100434.59
2022-08-01T23:37:21.878Z,100430.44
2022-08-01T23:40:25.200Z,100431.16
2022-08-01T23:43:26.934Z,100437.50
2022-08-01T23:46:28.363Z,100431.22
2022-08-01T23:49:30.059Z,100431.84
2022-08-01T23:52:32.424Z,100431.53
2022-08-01T23:55:37.718Z,100432.09
2022-08-01T23:58:39.540Z,100433.25
